Overview Statistics Trail Chart Weather Telemetry Raw packets
 

This is the latest recevied packets stored in our database for station/object DK7SB-10. If no packets are shown the sender has not sent any packets the latest 24 hours.

If you compare the raw packets with similar data from other websites it may differ (especially the path), the reason is that we are not collecting packets from the same APRS-IS servers. Each APRS-IS server performes duplicate filtering, and which packet that is considered to be a duplicate may differ depending on which APRS-IS server you receive your data from.

<< 1 2 3 4 >>

1788600690: DK7SB-10>APRSMC,TCPIP*,qAR,DH6MAV-10:T#329,951.3,25.5,0.0,1024.6,0.0,00000000

1788600684: DK7SB-10>APRSGW,TCPIP*,qAR,DK7SB-10:T#686,951.3,25.5,0.0,1024.6,0.0,00000000

1788598854: DK7SB-10>APRSGW,TCPIP*,qAR,DK7SB-10:T#685,951.0,25.4,0.0,1024.3,0.0,00000000

1788597024: DK7SB-10>APRSGW,TCPIP*,qAR,DK7SB-10:T#684,951.0,25.4,0.0,1024.3,0.0,00000000

1788595197: DK7SB-10>APRSMC,TCPIP*,qAR,DH6MAV-10:T#328,950.9,25.4,0.0,1024.2,0.0,00000000

1788595194: DK7SB-10>APRSGW,TCPIP*,qAR,DK7SB-10:T#683,950.9,25.4,0.0,1024.2,0.0,00000000

1788593368: DK7SB-10>APRSMC,TCPIP*,qAR,DH6MAV-10:T#327,950.2,25.3,0.0,1023.5,0.0,00000000

1788593364: DK7SB-10>APRSGW,TCPIP*,qAR,DK7SB-10:T#682,950.2,25.3,0.0,1023.5,0.0,00000000

1788591538: DK7SB-10>APRSMC,TCPIP*,qAR,DH6MAV-10:T#326,950.3,25.3,0.0,1023.6,0.0,00000000

1788591534: DK7SB-10>APRSGW,TCPIP*,qAR,DK7SB-10:T#681,950.3,25.3,0.0,1023.6,0.0,00000000

1788591534: DK7SB-10>APRSGW,TCPIP*,qAR,DK7SB-10::DK7SB-10 :UNIT.hPa,C deg,%,hPa,C deg,Y/N,O/N,O/N,O/N,O/N,O/N,O/N,O/N

1788591534: DK7SB-10>APRSGW,TCPIP*,qAR,DK7SB-10::DK7SB-10 :PARM.Press,Temp.in,Hum,QNH,Temp.out,track,-,-,-,-,-,-,-

1788591534: DK7SB-10>APRSGW,TCPIP*,qAR,DK7SB-10::DK7SB-10 :EQNS.0,1,0,0,1,0,0,1,0,0,1,0,0,1,0

1788589706: DK7SB-10>APRSMC,TCPIP*,qAR,DH6MAV-10:T#325,950.2,25.5,0.0,1023.5,0.0,00000000

1788589704: DK7SB-10>APRSGW,TCPIP*,qAR,DK7SB-10:T#680,950.2,25.5,0.0,1023.5,0.0,00000000

1788587874: DK7SB-10>APRSGW,TCPIP*,qAR,DK7SB-10:T#679,949.5,25.7,0.0,1022.6,0.0,00000000

1788586044: DK7SB-10>APRSGW,TCPIP*,qAR,DK7SB-10:T#678,949.7,25.7,0.0,1022.9,0.0,00000000

1788584214: DK7SB-10>APRSGW,TCPIP*,qAR,DK7SB-10:T#677,949.6,25.0,0.0,1023.0,0.0,00000000

1788582384: DK7SB-10>APRSGW,TCPIP*,qAR,DK7SB-10:T#676,949.3,25.6,0.0,1022.4,0.0,00000000

1788580554: DK7SB-10>APRSGW,TCPIP*,qAR,DK7SB-10:T#675,948.5,26.5,0.0,1021.3,0.0,00000000

1788578724: DK7SB-10>APRSGW,TCPIP*,qAR,DK7SB-10:T#674,947.8,27.2,0.0,1020.4,0.0,00000000

1788576896: DK7SB-10>APRSMC,TCPIP*,qAR,DH6MAV-10:T#324,947.3,27.7,0.0,1019.7,0.0,00000000

1788576894: DK7SB-10>APRSGW,TCPIP*,qAR,DK7SB-10:T#673,947.3,27.7,0.0,1019.7,0.0,00000000

1788575068: DK7SB-10>APRSMC,TCPIP*,qAR,DH6MAV-10:T#323,946.6,28.7,0.0,1018.8,0.0,00000000

1788575064: DK7SB-10>APRSGW,TCPIP*,qAR,DK7SB-10:T#672,946.6,28.7,0.0,1018.8,0.0,00000000